Aeroporto :
LOGIN :

Iscrizione | Disclaimer

   EN    FR    IT 

 










Sommario :    VFR   VFR Marginale   IFR   IFR Intensivo   IFR Molto Intensivo
Visibilità : 
Base nubi : 
>= 8 km
>= 3000ft
5 / 8 km
1000 / 3000 ft
1500m / 5 km
500 / 1000 ft
800 / 1500m
200 / 500 ft
< 800m
< 200 ft
Simboli :   Temporali  Nebbia  Neve Forte  Precipitazioni Forti  Vento > 20 kt
SIGMETs :   Varie  Temporali  Ghiacco  Turbolenza  Onda orograficha  Ceneri Vulcaniche







- Altitudine del aeroporto : 2220 ft


LOXZ - Zeltweg AB

ULTIMO METAR :
  • 121320Z 08010KT 40KM FEW055SC BKN140AC 08/02 Q1006 NOSIG

METARs OBSOLETI :
  • 121250Z 06009KT 40KM FEW050SC BKN140AC 08/03 Q1006 NOSIG
  • 121220Z 08009KT 040V100 40KM FEW050SC BKN140AC 09/03 Q1006 NOSIG
  • 121150Z 27005KT 230V290 40KM FEW040SC BKN140AC 11/02 Q1005 NOSIG
  • 121120Z VRB04KT 40KM FEW040SC BKN140AC 11/03 Q1005 NOSIG
  • 121050Z VRB04KT 30KM FEW040SC BKN140AC 11/03 Q1005 NOSIG

TAF TAF LOXZ
Valido dal 12 a 12 ore il 12 a 21 ore UTC


121115Z 1212/1221 VRB05KT 9999 SCT050 BKN120
BECMG 1218/1221 5000 -RASN FEW010 SCT040 BKN050
Nessun NOTAM noto per questo aeroporto.



MetMap, La meteo Aeronautica in un colpo d'occhio ! - Copyright ORBIFLY Dicembre 2007 - Disclaimer

ORBIFLY MET'MAP TEAM :

Programmazione e sviluppo : Alexandra Zaïnal
Concezione e sviluppo : Baudouin d'Aumeries
Co-Programmazione e sviluppo : Marc-Olivier Méhu
Supporto tecnico e logistico : Manuel Goepfert
Aiuto per la traduzione : Arnaldo La Scala

Contatto : metmap@orbifly.com




FONTI E CREDITI :

   NOAA